Cape Romanzof, Alaska
Current Conditions -  °F | °C
As of 7:55 AM on Thursday 30 Oct 2014 (Local Time) from PACZ Reporting Station
Overcast Overcast  
Wind Chill: 15°   Ceiling: 2800
Heat Index: 26°   Visibility: 10mi
Dew Point: 22°   Wind: 13mph
Humidity: 85%   Direction: 80°E
Pressure: 29.9"   Gusts: NA
Location:  61.78°N, 166.04°W
Report Text: PACZ 301555Z AUTO 08011KT 10SM OVC028 M03/M05 A2990 RMK AO2 SLP136 T10331055
Loading
Personal Weather Stations






























Interactive Weather Map
Tropical Storm Tracking
New forecast layout! Learn more

10-Day Weather Forecast

Advertisements
Track Severe Weather on mobile